< < Back
Terminal Aerodrome Forecast


Current Version              Previous Versions:   1  2  3  4  5  6  7  8  9  

Terminal Aerodrome Forecast

639
FTUS42 KCHS 202300
TAFCHS
TAF
KCHS 202325Z 2100/2124 18004KT P6SM SCT040 BKN150
     FM210600 VRB03KT P6SM VCSH SCT020 BKN040
     FM211300 31007G13KT P6SM SCT040 SCT090
     FM211800 27008G15KT P6SM SKC=



Latest METAR

368
SAUS80 KWBC 211900 RRC
MTRCHS
METAR KCHS 211856Z 27008KT 10SM CLR 27/11 A2988 RMK AO2 SLP116
T02720111


USA.gov is the U.S. government's official web portal to all federal, state and local government web resources and services.